Time;durP1;ratioP1;P1;durP2;ratioP2;P2;SDS_P1;SDS_P2;PMS_P1;PMS_P2;Temp;Humidity;BMP_temperature;BMP_pressure;BME280_temperature;BME280_humidity;BME280_pressure;Samples;Min_cycle;Max_cycle;Signal;HPM_P1;HPM_P2
2022/11/27 00:01:01;;;;;;;;;;;;;;;;;;10417171;28;19932;-61
2022/11/27 00:06:03;;;;;;;;;;;;;;;;;;10439642;28;19924;-61
2022/11/27 00:11:06;;;;;;;;;;;;;;;;;;10458530;28;19964;-61
2022/11/27 00:16:08;;;;;;;;;;;;;;;;;;10440205;28;19933;-61
2022/11/27 00:21:10;;;;;;;;;;;;;;;;;;10455420;28;20027;-61
2022/11/27 00:26:12;;;;;;;;;;;;;;;;;;10456266;28;19925;-61
2022/11/27 00:31:14;;;;;;;;;;;;;;;;;;10457320;28;20363;-61
2022/11/27 00:36:16;;;;;;;;;;;;;;;;;;10457894;28;19925;-61
2022/11/27 00:41:19;;;;;;;;;;;;;;;;;;10456612;28;19928;-61
2022/11/27 00:46:21;;;;;;;;;;;;;;;;;;10454657;28;19925;-61
2022/11/27 00:51:28;;;;;;;;;;;;;;;;;;10456693;28;20447;-61
2022/11/27 00:56:30;;;;;;;;;;;;;;;;;;10460243;28;19925;-61
2022/11/27 01:01:32;;;;;;;;;;;;;;;;;;10468041;28;19951;-61
2022/11/27 01:06:35;;;;;;;;;;;;;;;;;;10435511;28;19925;-61
2022/11/27 01:11:37;;;;;;;;;;;;;;;;;;10428283;28;20053;-61
2022/11/27 01:16:39;;;;;;;;;;;;;;;;;;10429509;28;19929;-61
2022/11/27 01:21:44;;;;;;;;;;;;;;;;;;10429454;28;19933;-60
2022/11/27 01:26:46;;;;;;;;;;;;;;;;;;10427784;28;20442;-61
2022/11/27 01:31:48;;;;;;;;;;;;;;;;;;10429151;28;19929;-60
2022/11/27 01:36:50;;;;;;;;;;;;;;;;;;10429165;28;19925;-61
2022/11/27 01:41:52;;;;;;;;;;;;;;;;;;10428291;28;19960;-61
2022/11/27 01:46:54;;;;;;;;;;;;;;;;;;10427177;28;20367;-61
2022/11/27 01:51:56;;;;;;;;;;;;;;;;;;10429033;28;19933;-61
2022/11/27 01:56:58;;;;;;;;;;;;;;;;;;10454170;28;19929;-61
2022/11/27 02:02:00;;;;;;;;;;;;;;;;;;10429034;28;19925;-61
2022/11/27 02:07:02;;;;;;;;;;;;;;;;;;10451184;28;19925;-61
2022/11/27 02:12:04;;;;;;;;;;;;;;;;;;10420638;28;20287;-60
2022/11/27 02:17:06;;;;;;;;;;;;;;;;;;10421382;28;19925;-61
2022/11/27 02:22:09;;;;;;;;;;;;;;;;;;10420357;28;19936;-60
2022/11/27 02:27:11;;;;;;;;;;;;;;;;;;10421579;28;19925;-60
2022/11/27 02:32:13;;;;;;;;;;;;;;;;;;10420627;28;19948;-60
2022/11/27 02:37:15;;;;;;;;;;;;;;;;;;10452101;28;19986;-60
2022/11/27 02:42:17;;;;;;;;;;;;;;;;;;10428704;28;19932;-60
2022/11/27 02:47:19;;;;;;;;;;;;;;;;;;10420583;28;19981;-60
2022/11/27 02:52:21;;;;;;;;;;;;;;;;;;10420522;28;19976;-60
2022/11/27 02:57:23;;;;;;;;;;;;;;;;;;10452404;28;19925;-60
2022/11/27 03:02:25;;;;;;;;;;;;;;;;;;10458807;28;19929;-61
2022/11/27 03:07:27;;;;;;;;;;;;;;;;;;10460590;28;20291;-60
2022/11/27 03:12:29;;;;;;;;;;;;;;;;;;10460230;28;19929;-60
2022/11/27 03:17:31;;;;;;;;;;;;;;;;;;10457873;28;20268;-60
2022/11/27 03:22:33;;;;;;;;;;;;;;;;;;10459384;28;19978;-61
2022/11/27 03:27:35;;;;;;;;;;;;;;;;;;10460360;28;19974;-60
2022/11/27 03:32:37;;;;;;;;;;;;;;;;;;10419189;28;19978;-60
2022/11/27 03:37:39;;;;;;;;;;;;;;;;;;10457057;28;19928;-60
2022/11/27 03:42:41;;;;;;;;;;;;;;;;;;10459090;28;20410;-60
2022/11/27 03:47:43;;;;;;;;;;;;;;;;;;10458065;28;19925;-60
2022/11/27 03:52:45;;;;;;;;;;;;;;;;;;10457135;28;19931;-60
2022/11/27 03:57:47;;;;;;;;;;;;;;;;;;10456724;28;19932;-61
2022/11/27 04:02:49;;;;;;;;;;;;;;;;;;10458267;28;20334;-61
2022/11/27 04:07:51;;;;;;;;;;;;;;;;;;10458819;28;19951;-60
2022/11/27 04:12:53;;;;;;;;;;;;;;;;;;10438494;28;19971;-60
2022/11/27 04:17:56;;;;;;;;;;;;;;;;;;10416743;28;19925;-60
2022/11/27 04:22:58;;;;;;;;;;;;;;;;;;10416744;28;19929;-60
2022/11/27 04:28:00;;;;;;;;;;;;;;;;;;10449011;28;19982;-61
2022/11/27 04:33:02;;;;;;;;;;;;;;;;;;10456882;28;19928;-61
2022/11/27 04:38:04;;;;;;;;;;;;;;;;;;10457852;28;19924;-61
2022/11/27 04:43:06;;;;;;;;;;;;;;;;;;10456093;28;19947;-61
2022/11/27 04:48:08;;;;;;;;;;;;;;;;;;10456742;28;19931;-61
2022/11/27 04:53:10;;;;;;;;;;;;;;;;;;10456750;28;19936;-61
2022/11/27 04:58:12;;;;;;;;;;;;;;;;;;10415969;28;19979;-61
2022/11/27 05:03:14;;;;;;;;;;;;;;;;;;10450469;28;19924;-60
2022/11/27 05:08:16;;;;;;;;;;;;;;;;;;10457213;28;19925;-60
2022/11/27 05:13:18;;;;;;;;;;;;;;;;;;10454774;28;19929;-61
2022/11/27 05:18:20;;;;;;;;;;;;;;;;;;10456335;28;20376;-60
2022/11/27 05:23:22;;;;;;;;;;;;;;;;;;10439607;28;19925;-61
2022/11/27 05:28:24;;;;;;;;;;;;;;;;;;10415692;28;19925;-61
2022/11/27 05:33:28;;;;;;;;;;;;;;;;;;10418153;28;19979;-61
2022/11/27 05:38:30;;;;;;;;;;;;;;;;;;10456602;28;19928;-61
2022/11/27 05:43:32;;;;;;;;;;;;;;;;;;10457354;28;19925;-61
2022/11/27 05:48:34;;;;;;;;;;;;;;;;;;10460512;28;19928;-61
2022/11/27 05:53:36;;;;;;;;;;;;;;;;;;10460881;28;20041;-61
2022/11/27 05:58:38;;;;;;;;;;;;;;;;;;10463927;28;19931;-61
2022/11/27 06:03:40;;;;;;;;;;;;;;;;;;10446813;28;20441;-60
2022/11/27 06:08:42;;;;;;;;;;;;;;;;;;10421848;28;19952;-61
2022/11/27 06:13:44;;;;;;;;;;;;;;;;;;10418959;28;20363;-61
2022/11/27 06:18:46;;;;;;;;;;;;;;;;;;10421704;28;19971;-61
2022/11/27 06:23:48;;;;;;;;;;;;;;;;;;10424320;28;19948;-61
2022/11/27 06:28:51;;;;;;;;;;;;;;;;;;10461533;28;19982;-61
2022/11/27 06:33:53;;;;;;;;;;;;;;;;;;10454093;28;20441;-61
2022/11/27 06:38:55;;;;;;;;;;;;;;;;;;10419146;28;20395;-61
2022/11/27 06:43:57;;;;;;;;;;;;;;;;;;10445160;28;19979;-61
2022/11/27 06:48:59;;;;;;;;;;;;;;;;;;10419964;28;19948;-61
2022/11/27 06:54:01;;;;;;;;;;;;;;;;;;10419736;28;19983;-61
2022/11/27 06:59:03;;;;;;;;;;;;;;;;;;10457856;28;20449;-61
2022/11/27 07:04:05;;;;;;;;;;;;;;;;;;10454881;22;19954;-63
2022/11/27 07:09:07;;;;;;;;;;;;;;;;;;10456194;28;19978;-63
2022/11/27 07:14:09;;;;;;;;;;;;;;;;;;10437837;28;20424;-63
2022/11/27 07:19:13;;;;;;;;;;;;;;;;;;10419027;28;20364;-63
2022/11/27 07:24:15;;;;;;;;;;;;;;;;;;10417512;28;19983;-63
2022/11/27 07:29:17;;;;;;;;;;;;;;;;;;10422367;28;19932;-63
2022/11/27 07:34:19;;;;;;;;;;;;;;;;;;10442931;28;19925;-62
2022/11/27 07:39:22;;;;;;;;;;;;;;;;;;10458727;28;19925;-63
2022/11/27 07:44:44;;;;;;;;;;;;;;;;;;10438889;28;19925;-63
2022/11/27 07:49:46;;;;;;;;;;;;;;;;;;10426603;28;19924;-63
2022/11/27 07:54:48;;;;;;;;;;;;;;;;;;10438805;28;19925;-62
2022/11/27 07:59:51;;;;;;;;;;;;;;;;;;10417326;28;20340;-62
2022/11/27 08:04:53;;;;;;;;;;;;;;;;;;10417050;28;20384;-62
2022/11/27 08:09:56;;;;;;;;;;;;;;;;;;10453849;28;20127;-62
2022/11/27 08:14:58;;;;;;;;;;;;;;;;;;10436970;28;19925;-62
2022/11/27 08:20:00;;;;;;;;;;;;;;;;;;10416574;28;20334;-62
2022/11/27 08:25:02;;;;;;;;;;;;;;;;;;10415471;28;19931;-62
2022/11/27 08:30:04;;;;;;;;;;;;;;;;;;10415375;28;19932;-62
2022/11/27 08:35:07;;;;;;;;;;;;;;;;;;10432736;28;19936;-62
2022/11/27 08:40:09;;;;;;;;;;;;;;;;;;10458394;28;19932;-62
2022/11/27 08:45:11;;;;;;;;;;;;;;;;;;10420340;28;20277;-62
2022/11/27 08:50:13;;;;;;;;;;;;;;;;;;10434138;28;20303;-62
2022/11/27 08:55:15;;;;;;;;;;;;;;;;;;10457400;28;19928;-62
2022/11/27 09:00:17;;;;;;;;;;;;;;;;;;10456937;28;19925;-62
2022/11/27 09:05:23;;;;;;;;;;;;;;;;;;10440510;28;19925;-62
2022/11/27 09:10:25;;;;;;;;;;;;;;;;;;10416233;28;19974;-62
2022/11/27 09:15:27;;;;;;;;;;;;;;;;;;10415816;28;19925;-62
2022/11/27 09:20:29;;;;;;;;;;;;;;;;;;10420604;28;20401;-62
2022/11/27 09:25:31;;;;;;;;;;;;;;;;;;10421974;28;19951;-62
2022/11/27 09:30:33;;;;;;;;;;;;;;;;;;10440366;28;19925;-62
2022/11/27 09:35:35;;;;;;;;;;;;;;;;;;10438932;28;19933;-62
2022/11/27 09:40:37;;;;;;;;;;;;;;;;;;10463655;28;19925;-63
2022/11/27 09:45:39;;;;;;;;;;;;;;;;;;10464487;28;19979;-63
2022/11/27 09:50:48;;;;;;;;;;;;;;;;;;10463237;28;19929;-63
2022/11/27 09:55:50;;;;;;;;;;;;;;;;;;10461065;28;19925;-63
2022/11/27 10:00:52;;;;;;;;;;;;;;;;;;10463881;28;19983;-63
2022/11/27 10:05:54;;;;;;;;;;;;;;;;;;10431844;28;19928;-63
2022/11/27 10:10:57;;;;;;;;;;;;;;;;;;10437606;28;19932;-63
2022/11/27 10:15:59;;;;;;;;;;;;;;;;;;10421243;28;19925;-63
2022/11/27 10:21:01;;;;;;;;;;;;;;;;;;10421237;28;20331;-63
2022/11/27 10:26:03;;;;;;;;;;;;;;;;;;10421046;28;19925;-63
2022/11/27 10:31:05;;;;;;;;;;;;;;;;;;10419867;28;19975;-63
2022/11/27 10:36:07;;;;;;;;;;;;;;;;;;10419726;28;19925;-63
2022/11/27 10:41:09;;;;;;;;;;;;;;;;;;10420534;28;20394;-63
2022/11/27 10:46:19;;;;;;;;;;;;;;;;;;10420378;28;20418;-63
2022/11/27 10:51:21;;;;;;;;;;;;;;;;;;10419746;28;19973;-63
2022/11/27 10:56:23;;;;;;;;;;;;;;;;;;10434333;28;20030;-63
2022/11/27 11:01:26;;;;;;;;;;;;;;;;;;10419355;28;19936;-63
2022/11/27 11:06:28;;;;;;;;;;;;;;;;;;10440474;28;19925;-63
2022/11/27 11:11:30;;;;;;;;;;;;;;;;;;10419902;28;19925;-63
2022/11/27 11:16:32;;;;;;;;;;;;;;;;;;10419759;28;19979;-63
2022/11/27 11:21:36;;;;;;;;;;;;;;;;;;10418135;28;19925;-63
2022/11/27 11:26:38;;;;;;;;;;;;;;;;;;10419307;28;19932;-63
2022/11/27 11:31:40;;;;;;;;;;;;;;;;;;10415399;28;19929;-63
2022/11/27 11:36:42;;;;;;;;;;;;;;;;;;10417123;28;20036;-63
2022/11/27 11:41:44;;;;;;;;;;;;;;;;;;10416918;28;19925;-63
2022/11/27 11:46:46;;;;;;;;;;;;;;;;;;10434104;28;19925;-63
2022/11/27 11:51:49;;;;;;;;;;;;;;;;;;10458786;28;20426;-63
2022/11/27 11:56:51;;;;;;;;;;;;;;;;;;10425941;28;19995;-63
2022/11/27 12:01:55;;;;;;;;;;;;;;;;;;10417884;28;19932;-63
2022/11/27 12:06:57;;;;;;;;;;;;;;;;;;10435046;28;19932;-63
2022/11/27 12:11:59;;;;;;;;;;;;;;;;;;10458719;28;19932;-63
2022/11/27 12:17:02;;;;;;;;;;;;;;;;;;10404265;28;19925;-63
2022/11/27 12:22:04;;;;;;;;;;;;;;;;;;10416651;28;19925;-63
2022/11/27 12:27:06;;;;;;;;;;;;;;;;;;10405755;28;19971;-63
2022/11/27 12:32:08;;;;;;;;;;;;;;;;;;10414829;28;20322;-63
2022/11/27 12:37:10;;;;;;;;;;;;;;;;;;10400710;28;20380;-64
2022/11/27 12:42:15;;;;;;;;;;;;;;;;;;10415015;28;20447;-63
2022/11/27 12:47:22;;;;;;;;;;;;;;;;;;10432122;28;20327;-63
2022/11/27 12:52:24;;;;;;;;;;;;;;;;;;10414170;28;19929;-63
2022/11/27 12:57:26;;;;;;;;;;;;;;;;;;10430727;28;19959;-63
2022/11/27 13:02:29;;;;;;;;;;;;;;;;;;10411404;28;20311;-63
2022/11/27 13:07:37;;;;;;;;;;;;;;;;;;10413913;28;19925;-63
2022/11/27 13:12:39;;;;;;;;;;;;;;;;;;10413829;28;19925;-63
2022/11/27 13:17:41;;;;;;;;;;;;;;;;;;10415076;28;19932;-63
2022/11/27 13:22:43;;;;;;;;;;;;;;;;;;10413888;28;19936;-63
2022/11/27 13:27:45;;;;;;;;;;;;;;;;;;10412640;28;20339;-63
2022/11/27 13:32:48;;;;;;;;;;;;;;;;;;10415561;28;19925;-63
2022/11/27 13:37:50;;;;;;;;;;;;;;;;;;10414204;28;19987;-63
2022/11/27 13:42:54;;;;;;;;;;;;;;;;;;10414271;28;19924;-63
2022/11/27 13:47:56;;;;;;;;;;;;;;;;;;10430456;28;19929;-63
2022/11/27 13:53:04;;;;;;;;;;;;;;;;;;10411827;28;20379;-63
2022/11/27 13:58:07;;;;;;;;;;;;;;;;;;10415142;28;19925;-63
2022/11/27 14:03:11;;;;;;;;;;;;;;;;;;10412735;28;19932;-63
2022/11/27 14:08:13;;;;;;;;;;;;;;;;;;10450969;28;19936;-63
2022/11/27 14:13:15;;;;;;;;;;;;;;;;;;10447948;28;19936;-63
2022/11/27 14:18:17;;;;;;;;;;;;;;;;;;10435262;28;19925;-62
2022/11/27 14:23:19;;;;;;;;;;;;;;;;;;10445253;28;19925;-63
2022/11/27 14:28:24;;;;;;;;;;;;;;;;;;10462857;28;19924;-63
2022/11/27 14:33:27;;;;;;;;;;;;;;;;;;10462657;28;19924;-63
2022/11/27 14:38:29;;;;;;;;;;;;;;;;;;10443814;28;19925;-63
2022/11/27 14:43:31;;;;;;;;;;;;;;;;;;10462346;28;19931;-63
2022/11/27 14:48:33;;;;;;;;;;;;;;;;;;10457099;28;19978;-63
2022/11/27 14:53:35;;;;;;;;;;;;;;;;;;10462043;28;19929;-63
2022/11/27 14:58:37;;;;;;;;;;;;;;;;;;10458703;28;19925;-62
2022/11/27 15:03:40;;;;;;;;;;;;;;;;;;10430200;28;19925;-62
2022/11/27 15:08:42;;;;;;;;;;;;;;;;;;10457094;28;19932;-62
2022/11/27 15:13:44;;;;;;;;;;;;;;;;;;10439515;28;20311;-62
2022/11/27 15:18:46;;;;;;;;;;;;;;;;;;10421993;28;19933;-63
2022/11/27 15:23:48;;;;;;;;;;;;;;;;;;10450671;28;20261;-62
2022/11/27 15:28:50;;;;;;;;;;;;;;;;;;10459910;28;19925;-63
2022/11/27 15:33:52;;;;;;;;;;;;;;;;;;10434307;28;19949;-63
2022/11/27 15:38:54;;;;;;;;;;;;;;;;;;10418374;28;19926;-62
2022/11/27 15:43:57;;;;;;;;;;;;;;;;;;10416986;28;19952;-62
2022/11/27 15:48:59;;;;;;;;;;;;;;;;;;10417785;28;19932;-63
2022/11/27 15:54:01;;;;;;;;;;;;;;;;;;10414948;28;19925;-63
2022/11/27 15:59:03;;;;;;;;;;;;;;;;;;10456495;28;19925;-63
2022/11/27 16:04:05;;;;;;;;;;;;;;;;;;10458274;28;19924;-62
2022/11/27 16:09:07;;;;;;;;;;;;;;;;;;10457490;28;19932;-63
2022/11/27 16:14:09;;;;;;;;;;;;;;;;;;10450848;28;19948;-63
2022/11/27 16:19:13;;;;;;;;;;;;;;;;;;10414994;28;19979;-63
2022/11/27 16:24:15;;;;;;;;;;;;;;;;;;10412489;28;19925;-62
2022/11/27 16:29:17;;;;;;;;;;;;;;;;;;10411862;28;19925;-63
2022/11/27 16:34:19;;;;;;;;;;;;;;;;;;10412241;28;19925;-63
2022/11/27 16:39:22;;;;;;;;;;;;;;;;;;10415786;28;19925;-63
2022/11/27 16:44:24;;;;;;;;;;;;;;;;;;10416001;28;19929;-62
2022/11/27 16:49:26;;;;;;;;;;;;;;;;;;10414959;28;19929;-63
2022/11/27 16:54:28;;;;;;;;;;;;;;;;;;10426812;28;19929;-62
2022/11/27 16:59:30;;;;;;;;;;;;;;;;;;10457446;28;19925;-62
2022/11/27 17:04:32;;;;;;;;;;;;;;;;;;10456772;28;19932;-63
2022/11/27 17:09:34;;;;;;;;;;;;;;;;;;10449721;28;19953;-62
2022/11/27 17:14:37;;;;;;;;;;;;;;;;;;10457042;28;19928;-62
2022/11/27 17:19:39;;;;;;;;;;;;;;;;;;10452855;28;20331;-62
2022/11/27 17:24:42;;;;;;;;;;;;;;;;;;10415124;28;19966;-62
2022/11/27 17:29:44;;;;;;;;;;;;;;;;;;10415103;28;20390;-62
2022/11/27 17:34:46;;;;;;;;;;;;;;;;;;10414649;28;19929;-63
2022/11/27 17:39:48;;;;;;;;;;;;;;;;;;10416880;28;20437;-62
2022/11/27 17:44:50;;;;;;;;;;;;;;;;;;10423119;28;19925;-63
2022/11/27 17:49:52;;;;;;;;;;;;;;;;;;10422145;28;19979;-62
2022/11/27 17:54:55;;;;;;;;;;;;;;;;;;10422329;28;19925;-63
2022/11/27 17:59:57;;;;;;;;;;;;;;;;;;10421132;28;20402;-62
2022/11/27 18:04:59;;;;;;;;;;;;;;;;;;10434132;28;19980;-62
2022/11/27 18:10:01;;;;;;;;;;;;;;;;;;10463644;28;19975;-62
2022/11/27 18:15:03;;;;;;;;;;;;;;;;;;10450786;28;19925;-62
2022/11/27 18:20:05;;;;;;;;;;;;;;;;;;10422067;28;19925;-62
2022/11/27 18:25:07;;;;;;;;;;;;;;;;;;10420829;28;19969;-62
2022/11/27 18:30:09;;;;;;;;;;;;;;;;;;10421071;28;19925;-62
2022/11/27 18:35:11;;;;;;;;;;;;;;;;;;10420841;28;19929;-62
2022/11/27 18:40:13;;;;;;;;;;;;;;;;;;10420484;28;19979;-62
2022/11/27 18:45:15;;;;;;;;;;;;;;;;;;10447383;28;19948;-62
2022/11/27 18:50:33;;;;;;;;;;;;;;;;;;10420718;28;19952;-62
2022/11/27 18:55:36;;;;;;;;;;;;;;;;;;10450100;28;19925;-62
2022/11/27 19:00:38;;;;;;;;;;;;;;;;;;10419952;28;19929;-62
2022/11/27 19:05:40;;;;;;;;;;;;;;;;;;10432400;28;19979;-62
2022/11/27 19:10:42;;;;;;;;;;;;;;;;;;10448096;28;19924;-62
2022/11/27 19:15:45;;;;;;;;;;;;;;;;;;10426350;28;19932;-62
2022/11/27 19:20:47;;;;;;;;;;;;;;;;;;10426383;22;19925;-66
2022/11/27 19:25:49;;;;;;;;;;;;;;;;;;10413871;28;20000;-66
2022/11/27 19:30:51;;;;;;;;;;;;;;;;;;10397693;28;19925;-66
2022/11/27 19:35:53;;;;;;;;;;;;;;;;;;10391245;28;19933;-66
2022/11/27 19:40:56;;;;;;;;;;;;;;;;;;10394197;28;19937;-66
2022/11/27 19:45:58;;;;;;;;;;;;;;;;;;10401506;28;20387;-66
2022/11/27 19:51:00;;;;;;;;;;;;;;;;;;10415533;28;19972;-67
2022/11/27 19:56:02;;;;;;;;;;;;;;;;;;10418946;28;19973;-66
2022/11/27 20:01:06;;;;;;;;;;;;;;;;;;10418104;28;21443;-66
2022/11/27 20:06:08;;;;;;;;;;;;;;;;;;10417397;28;19925;-66
2022/11/27 20:11:10;;;;;;;;;;;;;;;;;;10416397;28;19925;-65
2022/11/27 20:16:13;;;;;;;;;;;;;;;;;;10416804;28;19926;-65
2022/11/27 20:21:15;;;;;;;;;;;;;;;;;;10416650;28;19925;-66
2022/11/27 20:26:17;;;;;;;;;;;;;;;;;;10418462;28;19931;-66
2022/11/27 20:31:22;;;;;;;;;;;;;;;;;;10416414;28;19955;-66
2022/11/27 20:36:24;;;;;;;;;;;;;;;;;;10418645;28;19925;-67
2022/11/27 20:41:27;;;;;;;;;;;;;;;;;;10420273;28;19925;-66
2022/11/27 20:46:29;;;;;;;;;;;;;;;;;;10419509;28;19924;-66
2022/11/27 20:51:32;;;;;;;;;;;;;;;;;;10416745;28;19925;-65
2022/11/27 20:56:34;;;;;;;;;;;;;;;;;;10415756;28;19925;-65
2022/11/27 21:01:37;;;;;;;;;;;;;;;;;;10416943;28;20304;-65
2022/11/27 21:06:39;;;;;;;;;;;;;;;;;;10415573;28;20007;-65
2022/11/27 21:11:46;;;;;;;;;;;;;;;;;;10417123;28;19929;-65
2022/11/27 21:16:48;;;;;;;;;;;;;;;;;;10422705;28;19925;-65
2022/11/27 21:21:50;;;;;;;;;;;;;;;;;;10422282;28;20325;-65
2022/11/27 21:26:52;;;;;;;;;;;;;;;;;;10422770;28;19933;-66
2022/11/27 21:31:55;;;;;;;;;;;;;;;;;;10423236;28;19976;-66
2022/11/27 21:36:58;;;;;;;;;;;;;;;;;;10423708;28;20418;-66
2022/11/27 21:42:00;;;;;;;;;;;;;;;;;;10422567;28;19933;-66
2022/11/27 21:47:03;;;;;;;;;;;;;;;;;;10422221;28;19925;-66
2022/11/27 21:52:05;;;;;;;;;;;;;;;;;;10423159;28;19975;-66
2022/11/27 21:57:07;;;;;;;;;;;;;;;;;;10421888;28;20342;-67
2022/11/27 22:02:09;;;;;;;;;;;;;;;;;;10454670;28;19929;-66
2022/11/27 22:07:12;;;;;;;;;;;;;;;;;;10422101;28;19933;-66
2022/11/27 22:12:14;;;;;;;;;;;;;;;;;;10422499;28;20396;-66
2022/11/27 22:17:17;;;;;;;;;;;;;;;;;;10421925;28;19929;-66
2022/11/27 22:22:20;;;;;;;;;;;;;;;;;;10420835;28;19933;-66
2022/11/27 22:27:22;;;;;;;;;;;;;;;;;;10420844;28;19975;-66
2022/11/27 22:32:24;;;;;;;;;;;;;;;;;;10420915;28;19979;-66
2022/11/27 22:37:26;;;;;;;;;;;;;;;;;;10420653;28;19932;-66
2022/11/27 22:42:28;;;;;;;;;;;;;;;;;;10421182;28;19925;-66
2022/11/27 22:47:30;;;;;;;;;;;;;;;;;;10420450;28;19929;-66
2022/11/27 22:52:32;;;;;;;;;;;;;;;;;;10420256;28;19933;-66
2022/11/27 22:57:34;;;;;;;;;;;;;;;;;;10420626;28;19975;-66
2022/11/27 23:02:36;;;;;;;;;;;;;;;;;;10420395;28;19979;-66
2022/11/27 23:07:38;;;;;;;;;;;;;;;;;;10419681;28;20418;-66
2022/11/27 23:12:40;;;;;;;;;;;;;;;;;;10420151;28;19929;-66
2022/11/27 23:17:42;;;;;;;;;;;;;;;;;;10419442;28;19925;-66
2022/11/27 23:22:44;;;;;;;;;;;;;;;;;;10419675;28;19979;-66
2022/11/27 23:27:47;;;;;;;;;;;;;;;;;;10419475;28;19932;-66
2022/11/27 23:32:49;;;;;;;;;;;;;;;;;;10418095;28;19929;-66
2022/11/27 23:37:51;;;;;;;;;;;;;;;;;;10418881;28;19933;-66
2022/11/27 23:42:53;;;;;;;;;;;;;;;;;;10418849;28;19925;-66
2022/11/27 23:47:55;;;;;;;;;;;;;;;;;;10418217;28;19951;-66
2022/11/27 23:52:57;;;;;;;;;;;;;;;;;;10418434;28;19926;-66
2022/11/27 23:57:59;;;;;;;;;;;;;;;;;;10417042;28;20361;-66
